Time;durP1;ratioP1;P1;durP2;ratioP2;P2;SDS_P1;SDS_P2;PMS_P1;PMS_P2;Temp;Humidity;BMP_temperature;BMP_pressure;BME280_temperature;BME280_humidity;BME280_pressure;Samples;Min_cycle;Max_cycle;Signal;HPM_P1;HPM_P2
2023/03/20 00:02:18;;;;;;;8.52;6.25;;;;;;;;;;4996681;28;20108;-79
2023/03/20 00:04:44;;;;;;;7.75;5.85;;;;;;;;;;5005290;28;20581;-79
2023/03/20 00:07:11;;;;;;;7.55;5.65;;;;;;;;;;5003212;28;20471;-80
2023/03/20 00:09:38;;;;;;;8.80;6.47;;;;;;;;;;5009156;28;20029;-79
2023/03/20 00:12:04;;;;;;;8.77;6.22;;;;;;;;;;5006759;28;20107;-80
2023/03/20 00:14:30;;;;;;;7.95;6.60;;;;;;;;;;5007719;28;20021;-79
2023/03/20 00:16:57;;;;;;;10.05;6.20;;;;;;;;;;5010150;28;20112;-82
2023/03/20 00:19:28;;;;;;;8.25;5.50;;;;;;;;;;5002561;28;20461;-79
2023/03/20 00:21:56;;;;;;;10.93;5.57;;;;;;;;;;4999000;28;20562;-79
2023/03/20 00:24:22;;;;;;;6.47;4.93;;;;;;;;;;5004830;28;20321;-79
2023/03/20 00:26:49;;;;;;;8.00;4.70;;;;;;;;;;5003826;28;20026;-79
2023/03/20 00:29:26;;;;;;;10.85;6.20;;;;;;;;;;4999191;28;20398;-79
2023/03/20 00:31:53;;;;;;;7.85;5.60;;;;;;;;;;5008726;28;20029;-79
2023/03/20 00:34:22;;;;;;;7.90;5.30;;;;;;;;;;5007750;28;20772;-79
2023/03/20 00:36:48;;;;;;;9.68;5.30;;;;;;;;;;5000101;28;20443;-79
2023/03/20 00:39:15;;;;;;;9.93;6.38;;;;;;;;;;5003521;28;20141;-79
2023/03/20 00:41:47;;;;;;;9.43;5.88;;;;;;;;;;5006811;28;20042;-79
2023/03/20 00:44:27;;;;;;;8.07;5.53;;;;;;;;;;5011218;28;20084;-79
2023/03/20 00:46:55;;;;;;;8.65;5.22;;;;;;;;;;5007283;28;20037;-78
2023/03/20 00:49:32;;;;;;;9.80;6.22;;;;;;;;;;5004035;28;20045;-79
2023/03/20 00:52:00;;;;;;;8.18;5.80;;;;;;;;;;4999561;28;20030;-79
2023/03/20 00:54:26;;;;;;;7.93;5.70;;;;;;;;;;4998859;28;20081;-79
2023/03/20 00:57:16;;;;;;;8.85;5.78;;;;;;;;;;5003789;28;20440;-79
2023/03/20 00:59:49;;;;;;;9.02;6.15;;;;;;;;;;5001552;28;20482;-79
2023/03/20 01:02:16;;;;;;;9.45;5.95;;;;;;;;;;5013181;28;20483;-79
2023/03/20 01:04:43;;;;;;;7.78;6.07;;;;;;;;;;4995109;28;20054;-79
2023/03/20 01:07:14;;;;;;;8.05;5.35;;;;;;;;;;5019200;28;20041;-78
2023/03/20 01:09:40;;;;;;;9.73;5.70;;;;;;;;;;5017844;28;20447;-79
2023/03/20 01:12:07;;;;;;;9.35;5.82;;;;;;;;;;4972150;28;20617;-79
2023/03/20 01:14:34;;;;;;;8.82;6.00;;;;;;;;;;5011856;28;20034;-79
2023/03/20 01:17:01;;;;;;;7.47;5.47;;;;;;;;;;5001019;28;20034;-79
2023/03/20 01:19:27;;;;;;;8.65;5.35;;;;;;;;;;5011119;28;20705;-80
2023/03/20 01:21:53;;;;;;;8.55;5.82;;;;;;;;;;4996613;28;20030;-79
2023/03/20 01:24:20;;;;;;;10.20;6.10;;;;;;;;;;5001536;28;20034;-79
2023/03/20 01:26:46;;;;;;;14.60;6.32;;;;;;;;;;5001805;28;20472;-80
2023/03/20 01:29:23;;;;;;;11.40;6.38;;;;;;;;;;5000275;28;20018;-79
2023/03/20 01:31:49;;;;;;;8.60;6.38;;;;;;;;;;4995821;28;20050;-79
2023/03/20 01:34:17;;;;;;;11.15;5.50;;;;;;;;;;5001259;28;20117;-79
2023/03/20 01:36:51;;;;;;;8.55;5.63;;;;;;;;;;5014285;28;20072;-79
2023/03/20 01:39:20;;;;;;;8.63;5.90;;;;;;;;;;5006458;28;20113;-79
2023/03/20 01:41:47;;;;;;;8.55;5.63;;;;;;;;;;5010307;28;20034;-79
2023/03/20 01:44:18;;;;;;;8.43;6.25;;;;;;;;;;4997478;28;20041;-79
2023/03/20 01:46:45;;;;;;;8.43;5.30;;;;;;;;;;5012559;28;20104;-79
2023/03/20 01:49:20;;;;;;;7.63;5.63;;;;;;;;;;4996865;28;20034;-79
2023/03/20 01:51:50;;;;;;;8.45;5.10;;;;;;;;;;5001469;28;20034;-80
2023/03/20 01:54:24;;;;;;;7.90;5.10;;;;;;;;;;5012784;28;20360;-79
2023/03/20 01:56:51;;;;;;;8.57;5.82;;;;;;;;;;5001344;28;20031;-80
2023/03/20 01:59:31;;;;;;;9.35;5.72;;;;;;;;;;4999545;28;20398;-79
2023/03/20 02:01:58;;;;;;;9.38;5.95;;;;;;;;;;5016195;28;20080;-79
2023/03/20 02:04:26;;;;;;;9.55;5.60;;;;;;;;;;5012412;28;20044;-81
2023/03/20 02:06:52;;;;;;;9.40;5.50;;;;;;;;;;5002068;28;20377;-79
2023/03/20 02:09:18;;;;;;;11.63;5.15;;;;;;;;;;4993341;28;20490;-79
2023/03/20 02:11:45;;;;;;;9.02;5.80;;;;;;;;;;5003588;28;20022;-79
2023/03/20 02:14:12;;;;;;;7.65;5.15;;;;;;;;;;4998453;28;20025;-79
2023/03/20 02:16:39;;;;;;;9.32;5.50;;;;;;;;;;4998853;28;20021;-80
2023/03/20 02:19:09;;;;;;;9.15;6.13;;;;;;;;;;5006767;28;20053;-79
2023/03/20 02:21:54;;;;;;;9.23;4.97;;;;;;;;;;5005167;28;20030;-81
2023/03/20 02:24:39;;;;;;;7.70;5.70;;;;;;;;;;5006690;28;20022;-79
2023/03/20 02:27:08;;;;;;;7.00;5.45;;;;;;;;;;4996140;28;20030;-79
2023/03/20 02:29:53;;;;;;;8.02;5.22;;;;;;;;;;5004317;28;20116;-80
2023/03/20 02:32:31;;;;;;;10.80;5.80;;;;;;;;;;5002654;28;20019;-79
2023/03/20 02:35:16;;;;;;;7.60;5.75;;;;;;;;;;5009484;28;20056;-79
2023/03/20 02:37:50;;;;;;;7.70;5.60;;;;;;;;;;4993483;28;20029;-79
2023/03/20 02:40:35;;;;;;;8.82;6.32;;;;;;;;;;5009027;28;20026;-80
2023/03/20 02:43:06;;;;;;;8.93;5.65;;;;;;;;;;5008659;28;20018;-79
2023/03/20 02:45:38;;;;;;;7.43;5.18;;;;;;;;;;5006126;28;20030;-79
2023/03/20 02:48:07;;;;;;;9.27;5.97;;;;;;;;;;4993280;28;20018;-80
2023/03/20 02:50:34;;;;;;;8.27;5.38;;;;;;;;;;4997617;28;20037;-79
2023/03/20 02:53:17;;;;;;;7.47;5.50;;;;;;;;;;5006233;28;20014;-79
2023/03/20 02:55:47;;;;;;;8.57;5.38;;;;;;;;;;5005925;28;20459;-79
2023/03/20 02:58:14;;;;;;;8.90;5.35;;;;;;;;;;5019155;28;20371;-79
2023/03/20 03:00:41;;;;;;;8.55;5.25;;;;;;;;;;5011859;28;20530;-79
2023/03/20 03:03:13;;;;;;;9.57;6.20;;;;;;;;;;5015665;28;20770;-79
2023/03/20 03:05:45;;;;;;;9.02;5.55;;;;;;;;;;4999511;28;20053;-79
2023/03/20 03:08:13;;;;;;;8.70;5.70;;;;;;;;;;5011853;28;20113;-81
2023/03/20 03:10:43;;;;;;;10.18;5.50;;;;;;;;;;4994431;28;20014;-79
2023/03/20 03:13:12;;;;;;;9.10;5.28;;;;;;;;;;5009371;28;20486;-77
2023/03/20 03:15:39;;;;;;;8.65;5.97;;;;;;;;;;4991911;28;20044;-79
2023/03/20 03:18:08;;;;;;;6.80;5.43;;;;;;;;;;4990026;28;20030;-78
2023/03/20 03:20:35;;;;;;;8.23;5.13;;;;;;;;;;5001394;28;20053;-79
2023/03/20 03:23:04;;;;;;;7.35;4.85;;;;;;;;;;5010064;28;20027;-79
2023/03/20 03:25:32;;;;;;;7.05;5.13;;;;;;;;;;5010972;28;20052;-79
2023/03/20 03:28:05;;;;;;;6.85;5.22;;;;;;;;;;5008024;28;20046;-80
2023/03/20 03:30:33;;;;;;;8.23;5.25;;;;;;;;;;5002557;28;20120;-79
2023/03/20 03:33:11;;;;;;;7.68;5.78;;;;;;;;;;5010140;28;20058;-79
2023/03/20 03:35:37;;;;;;;9.48;5.32;;;;;;;;;;5004555;28;20037;-79
2023/03/20 03:38:14;;;;;;;8.88;5.07;;;;;;;;;;5003459;28;20468;-79
2023/03/20 03:40:45;;;;;;;9.60;5.47;;;;;;;;;;5002062;28;20030;-79
2023/03/20 03:43:16;;;;;;;8.57;4.80;;;;;;;;;;5006362;28;20025;-79
2023/03/20 03:45:59;;;;;;;7.57;4.50;;;;;;;;;;5006949;28;20044;-79
2023/03/20 03:48:32;;;;;;;7.20;5.30;;;;;;;;;;4998752;28;20030;-80
2023/03/20 03:51:01;;;;;;;8.32;4.65;;;;;;;;;;5014651;28;20022;-79
2023/03/20 03:53:31;;;;;;;8.05;5.00;;;;;;;;;;5003123;28;20034;-80
2023/03/20 03:56:00;;;;;;;4.93;4.25;;;;;;;;;;5009551;28;20041;-80
2023/03/20 03:58:29;;;;;;;7.45;4.90;;;;;;;;;;5009281;28;20064;-80
2023/03/20 04:00:57;;;;;;;9.20;4.65;;;;;;;;;;4996892;28;20037;-80
2023/03/20 04:03:25;;;;;;;6.25;4.50;;;;;;;;;;4993146;28;20560;-79
2023/03/20 04:05:52;;;;;;;7.22;4.00;;;;;;;;;;5001301;28;20046;-80
2023/03/20 04:08:19;;;;;;;6.93;4.40;;;;;;;;;;5010348;28;20029;-79
2023/03/20 04:10:45;;;;;;;6.00;4.28;;;;;;;;;;4997350;28;20026;-80
2023/03/20 04:13:11;;;;;;;7.70;4.75;;;;;;;;;;4998521;28;20014;-79
2023/03/20 04:15:37;;;;;;;6.43;4.20;;;;;;;;;;5002779;28;20022;-82
2023/03/20 04:18:04;;;;;;;7.60;4.93;;;;;;;;;;5004653;28;20017;-79
2023/03/20 04:20:31;;;;;;;7.38;4.43;;;;;;;;;;4995809;28;20029;-79
2023/03/20 04:22:57;;;;;;;5.88;4.18;;;;;;;;;;5001369;28;20391;-79
2023/03/20 04:25:28;;;;;;;7.70;4.47;;;;;;;;;;5005773;28;20029;-79
2023/03/20 04:27:54;;;;;;;6.90;4.50;;;;;;;;;;5006014;28;20040;-79
2023/03/20 04:30:20;;;;;;;6.25;4.70;;;;;;;;;;5014656;28;20352;-80
2023/03/20 04:32:46;;;;;;;7.95;4.90;;;;;;;;;;5006205;28;20023;-79
2023/03/20 04:35:13;;;;;;;6.30;4.68;;;;;;;;;;5016085;28;20018;-80
2023/03/20 04:37:40;;;;;;;11.40;4.85;;;;;;;;;;4998490;28;20371;-79
2023/03/20 04:40:07;;;;;;;6.68;5.22;;;;;;;;;;4999627;28;20026;-79
2023/03/20 04:42:33;;;;;;;8.40;4.75;;;;;;;;;;4997550;28;20037;-80
2023/03/20 04:44:59;;;;;;;7.32;4.65;;;;;;;;;;5006683;28;20030;-79
2023/03/20 04:47:29;;;;;;;7.30;4.47;;;;;;;;;;5012099;28;20026;-79
2023/03/20 04:49:55;;;;;;;7.55;4.72;;;;;;;;;;5000915;28;20089;-80
2023/03/20 04:52:21;;;;;;;8.45;5.32;;;;;;;;;;4998653;28;20022;-79
2023/03/20 04:54:47;;;;;;;7.40;4.90;;;;;;;;;;5005651;28;20463;-79
2023/03/20 04:57:14;;;;;;;8.43;5.35;;;;;;;;;;5003370;28;20064;-79
2023/03/20 04:59:40;;;;;;;8.13;5.53;;;;;;;;;;5014624;28;20104;-79
2023/03/20 05:02:06;;;;;;;7.88;4.80;;;;;;;;;;4994537;28;20060;-79
2023/03/20 05:04:32;;;;;;;8.73;5.20;;;;;;;;;;5005450;28;20042;-79
2023/03/20 05:06:58;;;;;;;8.38;4.80;;;;;;;;;;5004383;28;20472;-79
2023/03/20 05:09:24;;;;;;;6.97;4.85;;;;;;;;;;5002615;28;20102;-81
2023/03/20 05:11:50;;;;;;;6.70;5.10;;;;;;;;;;4998416;28;20028;-79
2023/03/20 05:14:17;;;;;;;10.80;4.95;;;;;;;;;;4990382;28;20030;-80
2023/03/20 05:16:43;;;;;;;8.38;5.03;;;;;;;;;;5004536;28;20026;-79
2023/03/20 05:19:09;;;;;;;8.65;5.68;;;;;;;;;;5008175;28;20034;-80
2023/03/20 05:21:35;;;;;;;6.28;4.72;;;;;;;;;;4999892;28;20030;-80
2023/03/20 05:24:01;;;;;;;7.97;5.38;;;;;;;;;;4998902;28;20022;-79
2023/03/20 05:26:27;;;;;;;7.28;5.43;;;;;;;;;;4994571;28;20033;-79
2023/03/20 05:28:54;;;;;;;6.45;4.43;;;;;;;;;;5002469;28;20380;-80
2023/03/20 05:31:20;;;;;;;9.40;4.57;;;;;;;;;;4995964;28;20626;-79
2023/03/20 05:33:46;;;;;;;7.38;4.68;;;;;;;;;;5012558;28;20030;-79
2023/03/20 05:36:12;;;;;;;8.48;4.95;;;;;;;;;;4998550;28;20191;-78
2023/03/20 05:38:38;;;;;;;9.20;5.50;;;;;;;;;;4999733;28;20040;-80
2023/03/20 05:41:05;;;;;;;6.97;4.78;;;;;;;;;;4994878;28;20394;-79
2023/03/20 05:43:31;;;;;;;7.78;5.13;;;;;;;;;;5005176;28;20382;-79
2023/03/20 05:45:57;;;;;;;10.07;4.88;;;;;;;;;;5005424;28;20053;-79
2023/03/20 05:48:23;;;;;;;7.85;5.07;;;;;;;;;;5004624;28;20524;-80
2023/03/20 05:50:49;;;;;;;8.30;5.13;;;;;;;;;;5002428;28;20030;-79
2023/03/20 05:53:16;;;;;;;6.97;4.80;;;;;;;;;;5003912;28;20025;-79
2023/03/20 05:55:43;;;;;;;7.00;4.82;;;;;;;;;;5003567;28;20030;-79
2023/03/20 05:58:10;;;;;;;7.63;4.57;;;;;;;;;;5001072;28;20026;-79
2023/03/20 06:00:36;;;;;;;8.38;5.35;;;;;;;;;;4994963;28;20608;-80
2023/03/20 06:03:02;;;;;;;9.18;5.30;;;;;;;;;;4992745;28;20030;-79
2023/03/20 06:05:29;;;;;;;8.20;4.80;;;;;;;;;;5000311;28;20479;-80
2023/03/20 06:07:55;;;;;;;8.93;5.32;;;;;;;;;;4998028;28;20117;-81
2023/03/20 06:10:21;;;;;;;10.60;5.50;;;;;;;;;;5012063;28;20022;-80
2023/03/20 06:12:47;;;;;;;8.70;5.18;;;;;;;;;;5014124;28;20026;-81
2023/03/20 06:15:13;;;;;;;8.95;4.95;;;;;;;;;;4998724;28;20022;-81
2023/03/20 06:17:39;;;;;;;6.43;4.30;;;;;;;;;;5004319;28;20030;-80
2023/03/20 06:20:07;;;;;;;6.88;4.75;;;;;;;;;;5014390;28;20495;-81
2023/03/20 06:22:33;;;;;;;7.97;4.47;;;;;;;;;;5013277;28;20072;-81
2023/03/20 06:25:01;;;;;;;8.25;4.60;;;;;;;;;;5007473;28;20037;-81
2023/03/20 06:27:27;;;;;;;6.68;4.10;;;;;;;;;;5008069;28;20053;-81
2023/03/20 06:29:56;;;;;;;9.52;5.10;;;;;;;;;;4993190;28;20046;-80
2023/03/20 06:32:22;;;;;;;6.90;4.72;;;;;;;;;;5014422;28;20374;-80
2023/03/20 06:34:48;;;;;;;8.00;4.40;;;;;;;;;;5003701;28;20021;-81
2023/03/20 06:37:14;;;;;;;8.05;4.80;;;;;;;;;;5106073;22;20046;-80
2023/03/20 06:39:41;;;;;;;6.93;4.38;;;;;;;;;;5026140;28;20036;-82
2023/03/20 06:42:09;;;;;;;6.70;4.10;;;;;;;;;;5024872;28;20033;-82
2023/03/20 06:44:36;;;;;;;5.07;3.75;;;;;;;;;;5001431;28;20045;-82
2023/03/20 06:47:02;;;;;;;5.65;4.22;;;;;;;;;;5020619;28;20026;-81
2023/03/20 06:49:28;;;;;;;5.35;3.58;;;;;;;;;;5013948;28;20056;-81
2023/03/20 06:51:54;;;;;;;8.05;4.43;;;;;;;;;;5019287;28;20026;-81
2023/03/20 06:54:20;;;;;;;5.80;3.67;;;;;;;;;;5031199;28;20023;-79
2023/03/20 06:56:49;;;;;;;5.88;4.10;;;;;;;;;;5015071;28;20040;-80
2023/03/20 06:59:15;;;;;;;5.53;3.65;;;;;;;;;;5017435;28;20034;-79
2023/03/20 07:01:42;;;;;;;5.22;3.83;;;;;;;;;;5023040;28;20039;-81
2023/03/20 07:04:08;;;;;;;5.25;3.50;;;;;;;;;;5012603;28;20027;-79
2023/03/20 07:06:35;;;;;;;5.90;3.70;;;;;;;;;;5022330;28;20082;-81
2023/03/20 07:09:02;;;;;;;5.20;3.42;;;;;;;;;;5022544;28;20023;-81
2023/03/20 07:11:29;;;;;;;6.28;4.20;;;;;;;;;;5022432;28;20021;-81
2023/03/20 07:13:55;;;;;;;5.45;3.60;;;;;;;;;;5023026;28;20050;-82
2023/03/20 07:16:22;;;;;;;6.90;3.50;;;;;;;;;;5018627;28;20032;-78
2023/03/20 07:18:48;;;;;;;5.82;3.30;;;;;;;;;;5014279;28;20391;-80
2023/03/20 07:21:19;;;;;;;6.65;3.95;;;;;;;;;;5013371;28;20054;-80
2023/03/20 07:23:45;;;;;;;5.20;3.63;;;;;;;;;;5041013;28;20041;-80
2023/03/20 07:26:11;;;;;;;4.32;3.25;;;;;;;;;;5022866;28;20045;-81
2023/03/20 07:28:37;;;;;;;6.20;3.33;;;;;;;;;;5022271;28;20017;-81
2023/03/20 07:31:04;;;;;;;7.72;2.95;;;;;;;;;;5023566;28;20025;-80
2023/03/20 07:33:30;;;;;;;5.00;3.42;;;;;;;;;;5017416;28;20019;-79
2023/03/20 07:35:57;;;;;;;6.55;3.45;;;;;;;;;;5012296;28;20034;-79
2023/03/20 07:38:23;;;;;;;4.60;2.80;;;;;;;;;;5019779;28;21119;-81
2023/03/20 07:40:49;;;;;;;5.85;3.20;;;;;;;;;;5029386;28;20615;-79
2023/03/20 07:43:16;;;;;;;3.47;3.00;;;;;;;;;;5013332;28;20061;-83
2023/03/20 07:45:42;;;;;;;4.32;3.25;;;;;;;;;;5022427;28;20049;-81
2023/03/20 07:48:08;;;;;;;4.10;3.08;;;;;;;;;;5020390;28;20088;-79
2023/03/20 07:50:34;;;;;;;3.75;2.65;;;;;;;;;;5014961;28;20049;-80
2023/03/20 07:53:00;;;;;;;4.07;3.13;;;;;;;;;;5009459;28;20022;-79
2023/03/20 07:55:26;;;;;;;4.35;2.90;;;;;;;;;;5012972;28;20235;-80
2023/03/20 07:57:52;;;;;;;4.85;2.58;;;;;;;;;;5016187;28;20018;-81
2023/03/20 08:00:19;;;;;;;3.88;2.40;;;;;;;;;;5019788;28;20053;-80
2023/03/20 08:02:45;;;;;;;4.38;2.63;;;;;;;;;;5016879;28;20030;-80
2023/03/20 08:05:11;;;;;;;3.50;2.50;;;;;;;;;;5017571;28;20057;-79
2023/03/20 08:07:37;;;;;;;3.92;2.63;;;;;;;;;;5033677;28;20102;-80
2023/03/20 08:10:04;;;;;;;4.10;2.47;;;;;;;;;;5021114;28;20021;-80
2023/03/20 08:12:30;;;;;;;3.53;2.38;;;;;;;;;;5022223;28;20096;-80
2023/03/20 08:14:56;;;;;;;3.03;2.60;;;;;;;;;;5024552;28;20045;-79
2023/03/20 08:17:22;;;;;;;2.70;2.05;;;;;;;;;;5027406;28;20528;-79
2023/03/20 08:19:48;;;;;;;2.75;2.20;;;;;;;;;;5015352;28;20030;-80
2023/03/20 08:22:14;;;;;;;3.65;2.15;;;;;;;;;;5020228;28;20026;-80
2023/03/20 08:24:41;;;;;;;2.63;2.08;;;;;;;;;;5022104;28;20034;-81
2023/03/20 08:27:07;;;;;;;3.53;2.13;;;;;;;;;;5023401;28;20029;-80
2023/03/20 08:29:33;;;;;;;3.15;2.80;;;;;;;;;;5029955;28;20030;-81
2023/03/20 08:31:59;;;;;;;5.35;2.15;;;;;;;;;;5019796;28;20026;-78
2023/03/20 08:34:25;;;;;;;2.65;2.13;;;;;;;;;;5027748;28;20102;-79
2023/03/20 08:36:52;;;;;;;2.65;2.00;;;;;;;;;;5023925;28;20046;-78
2023/03/20 08:39:18;;;;;;;3.35;1.95;;;;;;;;;;5014418;28;20447;-79
2023/03/20 08:41:44;;;;;;;2.42;1.92;;;;;;;;;;5015790;28;20034;-79
2023/03/20 08:44:11;;;;;;;2.90;2.60;;;;;;;;;;5019179;28;20036;-80
2023/03/20 08:46:38;;;;;;;2.47;2.05;;;;;;;;;;5018332;28;20049;-78
2023/03/20 08:49:05;;;;;;;4.55;2.60;;;;;;;;;;5010279;28;20026;-79
2023/03/20 08:51:31;;;;;;;2.50;1.90;;;;;;;;;;5015386;28;20374;-79
2023/03/20 08:53:57;;;;;;;2.78;2.00;;;;;;;;;;5010780;28;20030;-79
2023/03/20 08:56:23;;;;;;;2.58;2.00;;;;;;;;;;5013999;28;20404;-79
2023/03/20 08:58:51;;;;;;;1.80;1.65;;;;;;;;;;5013956;28;20029;-80
2023/03/20 09:01:18;;;;;;;2.55;1.77;;;;;;;;;;5015407;28;20083;-80
2023/03/20 09:03:44;;;;;;;1.77;1.63;;;;;;;;;;5014707;28;20026;-81
2023/03/20 09:06:11;;;;;;;2.83;1.92;;;;;;;;;;5021607;28;20044;-81
2023/03/20 09:08:37;;;;;;;2.17;1.90;;;;;;;;;;5009003;28;20031;-79
2023/03/20 09:11:04;;;;;;;2.45;1.80;;;;;;;;;;5013583;28;20022;-80
2023/03/20 09:13:30;;;;;;;3.25;1.80;;;;;;;;;;5015206;28;20053;-79
2023/03/20 09:15:57;;;;;;;2.10;1.67;;;;;;;;;;5020892;28;20030;-79
2023/03/20 09:18:23;;;;;;;2.00;1.80;;;;;;;;;;5026740;28;20034;-79
2023/03/20 09:20:50;;;;;;;2.10;1.90;;;;;;;;;;5014688;28;20030;-78
2023/03/20 09:23:16;;;;;;;2.10;1.70;;;;;;;;;;5007699;28;20396;-79
2023/03/20 09:25:43;;;;;;;3.58;1.73;;;;;;;;;;5014431;28;20034;-78
2023/03/20 09:28:09;;;;;;;5.35;2.25;;;;;;;;;;5017925;28;20030;-79
2023/03/20 09:30:36;;;;;;;2.22;1.90;;;;;;;;;;5012854;28;20026;-80
2023/03/20 09:33:02;;;;;;;3.92;1.98;;;;;;;;;;5023813;28;20057;-79
2023/03/20 09:35:28;;;;;;;2.50;2.30;;;;;;;;;;5019341;28;20026;-80
2023/03/20 09:37:55;;;;;;;2.80;2.17;;;;;;;;;;5011469;28;20050;-80
2023/03/20 09:40:28;;;;;;;1.40;1.30;;;;;;;;;;5012399;28;20122;-79
2023/03/20 09:42:57;;;;;;;1.67;1.58;;;;;;;;;;5018011;28;20026;-80
2023/03/20 09:45:26;;;;;;;2.38;1.70;;;;;;;;;;5008953;28;20058;-79
2023/03/20 09:48:03;;;;;;;2.03;1.52;;;;;;;;;;5012398;28;20130;-79
2023/03/20 09:50:38;;;;;;;1.73;1.60;;;;;;;;;;5023190;28;20378;-80
2023/03/20 09:53:10;;;;;;;1.90;1.50;;;;;;;;;;5019106;28;20030;-79
2023/03/20 09:55:37;;;;;;;2.83;1.90;;;;;;;;;;5016946;28;20034;-81
2023/03/20 09:58:12;;;;;;;2.22;1.70;;;;;;;;;;5014314;28;20061;-80
2023/03/20 10:00:40;;;;;;;2.72;1.92;;;;;;;;;;5019399;28;20033;-79
2023/03/20 10:03:11;;;;;;;2.47;1.92;;;;;;;;;;5017680;28;20018;-81
2023/03/20 10:05:46;;;;;;;2.10;1.65;;;;;;;;;;5017422;28;20034;-78
2023/03/20 10:08:15;;;;;;;3.10;2.00;;;;;;;;;;5021259;28;20026;-82
2023/03/20 10:11:00;;;;;;;2.13;1.77;;;;;;;;;;5016310;28;20093;-79
2023/03/20 10:13:39;;;;;;;1.67;1.50;;;;;;;;;;5011558;28;20098;-79
2023/03/20 10:16:24;;;;;;;2.25;1.90;;;;;;;;;;5018798;28;20042;-79
2023/03/20 10:19:19;;;;;;;2.58;1.67;;;;;;;;;;5016459;28;20101;-80
2023/03/20 10:21:48;;;;;;;2.00;1.80;;;;;;;;;;5000265;28;20129;-78
2023/03/20 10:24:22;;;;;;;1.98;1.75;;;;;;;;;;5022155;28;20030;-80
2023/03/20 10:26:51;;;;;;;3.55;2.88;;;;;;;;;;5015390;28;20030;-79
2023/03/20 10:29:29;;;;;;;3.42;2.00;;;;;;;;;;5017486;28;20018;-80
2023/03/20 10:32:01;;;;;;;3.10;1.80;;;;;;;;;;5014103;28;20027;-78
2023/03/20 10:34:31;;;;;;;4.93;1.65;;;;;;;;;;5009567;28;20029;-78
2023/03/20 10:37:12;;;;;;;4.70;1.90;;;;;;;;;;5014727;28;20042;-78
2023/03/20 10:39:49;;;;;;;2.58;2.10;;;;;;;;;;5016529;28;20036;-79
2023/03/20 10:42:23;;;;;;;2.42;2.05;;;;;;;;;;5024805;28;20027;-79
2023/03/20 10:44:54;;;;;;;1.85;1.63;;;;;;;;;;5016708;28;20030;-79
2023/03/20 10:47:21;;;;;;;2.28;1.77;;;;;;;;;;5027275;28;20049;-78
2023/03/20 10:49:49;;;;;;;2.72;1.83;;;;;;;;;;5013200;28;20014;-78
2023/03/20 10:52:27;;;;;;;4.65;2.08;;;;;;;;;;5025304;28;20041;-80
2023/03/20 10:54:56;;;;;;;4.10;1.83;;;;;;;;;;5014767;28;20022;-79
2023/03/20 10:57:23;;;;;;;3.17;1.77;;;;;;;;;;5016598;28;20097;-79
2023/03/20 10:59:50;;;;;;;2.42;1.63;;;;;;;;;;5015967;28;20127;-84
2023/03/20 11:02:18;;;;;;;2.65;1.90;;;;;;;;;;5009644;28;20026;-81
2023/03/20 11:04:44;;;;;;;2.22;1.85;;;;;;;;;;5010581;28;20039;-80
2023/03/20 11:07:29;;;;;;;2.85;1.90;;;;;;;;;;5008998;28;20022;-78
2023/03/20 11:10:04;;;;;;;3.03;2.00;;;;;;;;;;5006924;28;20073;-79
2023/03/20 11:12:30;;;;;;;;;;;;;;;;;;5011289;28;20022;-79
2023/03/20 11:15:00;;;;;;;1.92;1.73;;;;;;;;;;5015242;28;19919;-78
2023/03/20 11:17:30;;;;;;;3.25;1.95;;;;;;;;;;5015433;28;20023;-78
2023/03/20 11:20:03;;;;;;;2.40;1.88;;;;;;;;;;5010888;28;20026;-79
2023/03/20 11:22:29;;;;;;;3.58;2.00;;;;;;;;;;5010448;28;20027;-79
2023/03/20 11:25:00;;;;;;;3.78;2.17;;;;;;;;;;5004068;28;20077;-78
2023/03/20 11:27:31;;;;;;;5.03;1.95;;;;;;;;;;5004515;28;20025;-79
2023/03/20 11:30:03;;;;;;;2.30;1.88;;;;;;;;;;5023543;28;20496;-78
2023/03/20 11:32:49;;;;;;;3.60;2.00;;;;;;;;;;5013060;28;20052;-78
2023/03/20 11:35:21;;;;;;;3.10;1.70;;;;;;;;;;5015316;28;20635;-77
2023/03/20 11:37:50;;;;;;;2.60;1.90;;;;;;;;;;5017739;28;20046;-79
2023/03/20 11:40:17;;;;;;;2.75;1.80;;;;;;;;;;5020634;28;20037;-78
2023/03/20 11:42:57;;;;;;;3.78;1.90;;;;;;;;;;5014469;28;20439;-78
2023/03/20 11:45:25;;;;;;;2.97;2.25;;;;;;;;;;5018593;28;20034;-78
2023/03/20 11:47:52;;;;;;;2.03;1.65;;;;;;;;;;5023225;28;20033;-78
2023/03/20 11:50:27;;;;;;;4.57;2.03;;;;;;;;;;5014088;28;20027;-78
2023/03/20 11:52:53;;;;;;;7.05;2.38;;;;;;;;;;5025946;28;20412;-78
2023/03/20 11:55:27;;;;;;;2.97;2.13;;;;;;;;;;5022681;28;20002;-78
2023/03/20 11:58:02;;;;;;;3.92;2.22;;;;;;;;;;5026352;28;20030;-81
2023/03/20 12:00:36;;;;;;;3.95;2.30;;;;;;;;;;5020147;28;20109;-79
2023/03/20 12:03:03;;;;;;;3.55;1.75;;;;;;;;;;5014168;28;20078;-78
2023/03/20 12:05:34;;;;;;;5.20;2.50;;;;;;;;;;5007282;28;20563;-78
2023/03/20 12:08:03;;;;;;;4.90;1.95;;;;;;;;;;5007194;28;20029;-77
2023/03/20 12:10:32;;;;;;;2.58;1.77;;;;;;;;;;5022761;28;20037;-79
2023/03/20 12:13:04;;;;;;;6.55;2.30;;;;;;;;;;5018052;28;20048;-79
2023/03/20 12:15:35;;;;;;;3.30;2.00;;;;;;;;;;5011980;28;20053;-78
2023/03/20 12:18:16;;;;;;;3.63;2.15;;;;;;;;;;5029423;28;20018;-79
2023/03/20 12:20:46;;;;;;;5.43;2.20;;;;;;;;;;5017162;28;20076;-79
2023/03/20 12:23:13;;;;;;;7.50;2.75;;;;;;;;;;5012736;28;20026;-81
2023/03/20 12:25:51;;;;;;;6.93;2.45;;;;;;;;;;5019906;28;20036;-81
2023/03/20 12:28:20;;;;;;;7.72;2.53;;;;;;;;;;5018631;28;20037;-78
2023/03/20 12:30:47;;;;;;;7.40;2.47;;;;;;;;;;5017958;28;20026;-78
2023/03/20 12:33:20;;;;;;;4.55;2.28;;;;;;;;;;5008953;28;20022;-78
2023/03/20 12:35:48;;;;;;;4.80;2.50;;;;;;;;;;5007017;28;20086;-78
2023/03/20 12:38:41;;;;;;;4.03;2.17;;;;;;;;;;5012775;28;20049;-79
2023/03/20 12:41:12;;;;;;;5.82;2.20;;;;;;;;;;5016223;28;20034;-79
2023/03/20 12:43:52;;;;;;;5.03;2.22;;;;;;;;;;5020440;28;20071;-78
2023/03/20 12:46:29;;;;;;;3.92;2.03;;;;;;;;;;5017964;28;20018;-78
2023/03/20 12:48:55;;;;;;;4.32;1.88;;;;;;;;;;5022508;28;20034;-77
2023/03/20 12:51:40;;;;;;;3.30;1.90;;;;;;;;;;5020929;28;20026;-79
2023/03/20 12:54:16;;;;;;;3.42;2.08;;;;;;;;;;5018285;28;20034;-79
2023/03/20 12:56:43;;;;;;;3.03;2.00;;;;;;;;;;5004500;28;20026;-83
2023/03/20 12:59:09;;;;;;;5.00;2.58;;;;;;;;;;5016989;28;20473;-83
2023/03/20 13:01:44;;;;;;;2.88;2.05;;;;;;;;;;5013904;28;20026;-84
2023/03/20 13:04:20;;;;;;;4.72;2.00;;;;;;;;;;5011402;28;20057;-81
2023/03/20 13:06:54;;;;;;;5.35;2.67;;;;;;;;;;5012014;28;20134;-80
2023/03/20 13:09:46;;;;;;;4.38;2.30;;;;;;;;;;5028677;28;20018;-79
2023/03/20 13:12:22;;;;;;;3.38;2.13;;;;;;;;;;5001823;28;20034;-83
2023/03/20 13:14:51;;;;;;;3.47;2.13;;;;;;;;;;5008214;28;20022;-80
2023/03/20 13:17:24;;;;;;;4.68;2.10;;;;;;;;;;4996858;28;20025;-85
2023/03/20 13:19:50;;;;;;;3.22;2.15;;;;;;;;;;5011986;28;20038;-84
2023/03/20 13:22:29;;;;;;;8.35;4.00;;;;;;;;;;4997052;28;20114;-86
2023/03/20 13:25:15;;;;;;;8.60;4.53;;;;;;;;;;5011605;28;20022;-81
2023/03/20 13:27:48;;;;;;;7.32;3.53;;;;;;;;;;4970615;28;20057;-82
2023/03/20 13:30:28;;;;;;;4.13;2.22;;;;;;;;;;5021877;28;20026;-79
2023/03/20 13:33:05;;;;;;;4.10;2.35;;;;;;;;;;5028686;28;20026;-79
2023/03/20 13:35:51;;;;;;;5.07;3.85;;;;;;;;;;5011819;28;20077;-80
2023/03/20 13:38:26;;;;;;;10.02;6.03;;;;;;;;;;5022244;28;20052;-80
2023/03/20 13:41:00;;;;;;;10.38;6.90;;;;;;;;;;5028792;28;20034;-81
2023/03/20 13:43:30;;;;;;;7.97;5.00;;;;;;;;;;5020269;28;20041;-81
2023/03/20 13:46:01;;;;;;;12.85;9.45;;;;;;;;;;5019662;28;20440;-81
2023/03/20 13:48:34;;;;;;;14.52;9.48;;;;;;;;;;5011224;28;20022;-81
2023/03/20 13:51:12;;;;;;;10.40;6.00;;;;;;;;;;5038721;28;20257;-81
2023/03/20 13:53:53;;;;;;;4.93;2.75;;;;;;;;;;5015833;28;20021;-81
2023/03/20 13:56:28;;;;;;;5.90;3.38;;;;;;;;;;5010761;28;20026;-81
2023/03/20 13:59:20;;;;;;;5.05;3.92;;;;;;;;;;5024754;28;20104;-82
2023/03/20 14:01:49;;;;;;;6.97;3.10;;;;;;;;;;5009996;28;20053;-81
2023/03/20 14:04:18;;;;;;;5.40;2.30;;;;;;;;;;5024621;28;20029;-82
2023/03/20 14:06:51;;;;;;;4.68;2.42;;;;;;;;;;5019529;28;20041;-80
2023/03/20 14:09:28;;;;;;;2.10;1.80;;;;;;;;;;5023862;28;20028;-81
2023/03/20 14:11:55;;;;;;;3.00;2.20;;;;;;;;;;5010224;28;20430;-81
2023/03/20 14:14:29;;;;;;;5.22;2.63;;;;;;;;;;5007135;28;20475;-80
2023/03/20 14:17:03;;;;;;;5.80;3.70;;;;;;;;;;5015414;28;20097;-80
2023/03/20 14:19:29;;;;;;;3.00;1.77;;;;;;;;;;5020233;28;20579;-82
2023/03/20 14:21:56;;;;;;;2.60;1.80;;;;;;;;;;5020607;28;20038;-83
2023/03/20 14:24:23;;;;;;;2.40;1.90;;;;;;;;;;5028178;28;20018;-82
2023/03/20 14:26:50;;;;;;;2.30;1.75;;;;;;;;;;5020431;28;20026;-81
2023/03/20 14:29:16;;;;;;;1.95;1.85;;;;;;;;;;5019586;28;20033;-81
2023/03/20 14:31:44;;;;;;;3.28;1.92;;;;;;;;;;5028597;28;20018;-80
2023/03/20 14:34:13;;;;;;;2.85;1.92;;;;;;;;;;5029782;28;20029;-80
2023/03/20 14:36:50;;;;;;;2.67;1.80;;;;;;;;;;5024086;28;20089;-80
2023/03/20 14:39:35;;;;;;;3.28;2.17;;;;;;;;;;5015461;28;20046;-81
2023/03/20 14:42:20;;;;;;;2.53;1.80;;;;;;;;;;5022670;28;20072;-81
2023/03/20 14:44:52;;;;;;;1.92;1.77;;;;;;;;;;5020585;28;20030;-81
2023/03/20 14:47:30;;;;;;;2.22;1.85;;;;;;;;;;5018259;28;20034;-80
2023/03/20 14:49:56;;;;;;;1.63;1.52;;;;;;;;;;5014748;28;20019;-79
2023/03/20 14:52:37;;;;;;;3.28;1.60;;;;;;;;;;5014902;28;20058;-80
2023/03/20 14:55:15;;;;;;;1.75;1.63;;;;;;;;;;5021524;28;20021;-82
2023/03/20 14:57:42;;;;;;;3.40;2.28;;;;;;;;;;5018268;28;20030;-81
2023/03/20 15:00:19;;;;;;;5.22;3.25;;;;;;;;;;5012312;28;20074;-80